sensor_id;sensor_type;location;lat;lon;timestamp;P1;durP1;ratioP1;P2;durP2;ratioP2
32080;SDS011;18593;51.426;7.030;2022-12-18T00:01:04;33.08;;;17.92;;
32080;SDS011;18593;51.426;7.030;2022-12-18T00:03:32;30.77;;;15.48;;
32080;SDS011;18593;51.426;7.030;2022-12-18T00:05:59;32.63;;;15.18;;
32080;SDS011;18593;51.426;7.030;2022-12-18T00:08:26;30.40;;;13.32;;
32080;SDS011;18593;51.426;7.030;2022-12-18T00:10:53;28.23;;;14.57;;
32080;SDS011;18593;51.426;7.030;2022-12-18T00:13:19;25.45;;;13.05;;
32080;SDS011;18593;51.426;7.030;2022-12-18T00:15:48;26.50;;;13.70;;
32080;SDS011;18593;51.426;7.030;2022-12-18T00:18:15;25.92;;;13.95;;
32080;SDS011;18593;51.426;7.030;2022-12-18T00:20:42;22.90;;;12.25;;
32080;SDS011;18593;51.426;7.030;2022-12-18T00:23:08;23.20;;;11.85;;
32080;SDS011;18593;51.426;7.030;2022-12-18T00:25:36;21.02;;;10.55;;
32080;SDS011;18593;51.426;7.030;2022-12-18T00:28:03;21.45;;;10.55;;
32080;SDS011;18593;51.426;7.030;2022-12-18T00:30:30;23.98;;;12.00;;
32080;SDS011;18593;51.426;7.030;2022-12-18T00:32:59;29.95;;;14.75;;
32080;SDS011;18593;51.426;7.030;2022-12-18T00:35:25;38.92;;;18.58;;
32080;SDS011;18593;51.426;7.030;2022-12-18T00:37:52;37.20;;;18.30;;
32080;SDS011;18593;51.426;7.030;2022-12-18T00:40:19;38.13;;;18.98;;
32080;SDS011;18593;51.426;7.030;2022-12-18T00:42:46;32.67;;;16.60;;
32080;SDS011;18593;51.426;7.030;2022-12-18T00:45:21;33.00;;;16.30;;
32080;SDS011;18593;51.426;7.030;2022-12-18T00:47:51;31.83;;;14.88;;
32080;SDS011;18593;51.426;7.030;2022-12-18T00:50:19;29.83;;;15.35;;
32080;SDS011;18593;51.426;7.030;2022-12-18T00:52:46;27.58;;;13.73;;
32080;SDS011;18593;51.426;7.030;2022-12-18T00:55:13;27.52;;;15.07;;
32080;SDS011;18593;51.426;7.030;2022-12-18T00:57:40;29.13;;;15.27;;
32080;SDS011;18593;51.426;7.030;2022-12-18T01:00:08;32.03;;;14.32;;
32080;SDS011;18593;51.426;7.030;2022-12-18T01:02:37;31.10;;;15.45;;
32080;SDS011;18593;51.426;7.030;2022-12-18T01:05:05;30.60;;;15.40;;
32080;SDS011;18593;51.426;7.030;2022-12-18T01:07:34;31.50;;;15.15;;
32080;SDS011;18593;51.426;7.030;2022-12-18T01:10:02;25.95;;;13.07;;
32080;SDS011;18593;51.426;7.030;2022-12-18T01:12:30;23.23;;;11.93;;
32080;SDS011;18593;51.426;7.030;2022-12-18T01:14:57;21.15;;;10.95;;
32080;SDS011;18593;51.426;7.030;2022-12-18T01:17:24;25.85;;;13.02;;
32080;SDS011;18593;51.426;7.030;2022-12-18T01:19:52;28.48;;;13.93;;
32080;SDS011;18593;51.426;7.030;2022-12-18T01:22:19;25.42;;;12.85;;
32080;SDS011;18593;51.426;7.030;2022-12-18T01:24:47;31.30;;;14.77;;
32080;SDS011;18593;51.426;7.030;2022-12-18T01:27:14;28.85;;;14.27;;
32080;SDS011;18593;51.426;7.030;2022-12-18T01:29:41;33.35;;;16.10;;
32080;SDS011;18593;51.426;7.030;2022-12-18T01:32:08;28.33;;;14.25;;
32080;SDS011;18593;51.426;7.030;2022-12-18T01:34:35;25.92;;;13.45;;
32080;SDS011;18593;51.426;7.030;2022-12-18T01:37:02;28.25;;;12.93;;
32080;SDS011;18593;51.426;7.030;2022-12-18T01:39:30;18.02;;;8.50;;
32080;SDS011;18593;51.426;7.030;2022-12-18T01:41:59;17.55;;;8.20;;
32080;SDS011;18593;51.426;7.030;2022-12-18T01:47:33;19.02;;;9.93;;
32080;SDS011;18593;51.426;7.030;2022-12-18T01:50:05;23.98;;;10.55;;
32080;SDS011;18593;51.426;7.030;2022-12-18T01:52:34;20.35;;;10.70;;
32080;SDS011;18593;51.426;7.030;2022-12-18T01:55:01;25.25;;;11.52;;
32080;SDS011;18593;51.426;7.030;2022-12-18T01:57:31;23.55;;;11.90;;
32080;SDS011;18593;51.426;7.030;2022-12-18T01:59:59;25.98;;;13.32;;
32080;SDS011;18593;51.426;7.030;2022-12-18T02:02:38;21.90;;;11.60;;
32080;SDS011;18593;51.426;7.030;2022-12-18T02:05:06;27.70;;;13.13;;
32080;SDS011;18593;51.426;7.030;2022-12-18T02:07:37;26.48;;;13.13;;
32080;SDS011;18593;51.426;7.030;2022-12-18T02:10:11;25.85;;;12.35;;
32080;SDS011;18593;51.426;7.030;2022-12-18T02:12:45;24.45;;;12.18;;
32080;SDS011;18593;51.426;7.030;2022-12-18T02:15:15;21.90;;;11.82;;
32080;SDS011;18593;51.426;7.030;2022-12-18T02:17:47;21.35;;;11.35;;
32080;SDS011;18593;51.426;7.030;2022-12-18T02:20:20;21.80;;;9.95;;
32080;SDS011;18593;51.426;7.030;2022-12-18T02:22:54;15.73;;;8.05;;
32080;SDS011;18593;51.426;7.030;2022-12-18T02:25:39;12.32;;;6.28;;
32080;SDS011;18593;51.426;7.030;2022-12-18T02:28:19;13.40;;;6.38;;
32080;SDS011;18593;51.426;7.030;2022-12-18T02:30:47;13.45;;;6.28;;
32080;SDS011;18593;51.426;7.030;2022-12-18T02:33:15;12.10;;;5.80;;
32080;SDS011;18593;51.426;7.030;2022-12-18T02:35:43;14.82;;;6.65;;
32080;SDS011;18593;51.426;7.030;2022-12-18T02:38:12;13.63;;;6.40;;
32080;SDS011;18593;51.426;7.030;2022-12-18T02:40:42;12.23;;;6.03;;
32080;SDS011;18593;51.426;7.030;2022-12-18T02:43:13;12.60;;;6.18;;
32080;SDS011;18593;51.426;7.030;2022-12-18T02:45:52;13.77;;;6.55;;
32080;SDS011;18593;51.426;7.030;2022-12-18T02:48:23;14.88;;;6.40;;
32080;SDS011;18593;51.426;7.030;2022-12-18T02:50:52;14.52;;;7.07;;
32080;SDS011;18593;51.426;7.030;2022-12-18T02:53:26;14.93;;;6.55;;
32080;SDS011;18593;51.426;7.030;2022-12-18T02:55:58;12.95;;;6.95;;
32080;SDS011;18593;51.426;7.030;2022-12-18T02:58:33;13.13;;;6.13;;
32080;SDS011;18593;51.426;7.030;2022-12-18T03:01:13;14.00;;;6.95;;
32080;SDS011;18593;51.426;7.030;2022-12-18T03:03:44;12.93;;;6.63;;
32080;SDS011;18593;51.426;7.030;2022-12-18T03:06:14;14.48;;;7.15;;
32080;SDS011;18593;51.426;7.030;2022-12-18T03:08:48;11.88;;;6.25;;
32080;SDS011;18593;51.426;7.030;2022-12-18T03:11:19;11.48;;;6.13;;
32080;SDS011;18593;51.426;7.030;2022-12-18T03:14:11;15.00;;;6.80;;
32080;SDS011;18593;51.426;7.030;2022-12-18T03:16:39;12.18;;;7.10;;
32080;SDS011;18593;51.426;7.030;2022-12-18T03:19:08;14.35;;;6.00;;
32080;SDS011;18593;51.426;7.030;2022-12-18T03:21:40;15.07;;;6.85;;
32080;SDS011;18593;51.426;7.030;2022-12-18T03:24:09;12.10;;;6.32;;
32080;SDS011;18593;51.426;7.030;2022-12-18T03:26:37;12.27;;;6.10;;
32080;SDS011;18593;51.426;7.030;2022-12-18T03:29:08;12.77;;;6.50;;
32080;SDS011;18593;51.426;7.030;2022-12-18T03:31:39;12.57;;;6.45;;
32080;SDS011;18593;51.426;7.030;2022-12-18T03:34:08;11.93;;;6.18;;
32080;SDS011;18593;51.426;7.030;2022-12-18T03:36:42;14.25;;;6.43;;
32080;SDS011;18593;51.426;7.030;2022-12-18T03:39:09;11.07;;;5.68;;
32080;SDS011;18593;51.426;7.030;2022-12-18T03:41:38;11.68;;;6.25;;
32080;SDS011;18593;51.426;7.030;2022-12-18T03:44:38;11.48;;;5.15;;
32080;SDS011;18593;51.426;7.030;2022-12-18T03:47:09;11.75;;;5.90;;
32080;SDS011;18593;51.426;7.030;2022-12-18T03:49:43;12.07;;;6.00;;
32080;SDS011;18593;51.426;7.030;2022-12-18T03:52:15;11.25;;;5.65;;
32080;SDS011;18593;51.426;7.030;2022-12-18T03:54:44;10.55;;;5.45;;
32080;SDS011;18593;51.426;7.030;2022-12-18T03:57:16;11.95;;;5.28;;
32080;SDS011;18593;51.426;7.030;2022-12-18T04:02:17;9.63;;;5.25;;
32080;SDS011;18593;51.426;7.030;2022-12-18T04:04:45;10.18;;;5.47;;
32080;SDS011;18593;51.426;7.030;2022-12-18T04:07:15;10.27;;;5.30;;
32080;SDS011;18593;51.426;7.030;2022-12-18T04:09:43;10.43;;;5.43;;
32080;SDS011;18593;51.426;7.030;2022-12-18T04:12:12;11.55;;;5.32;;
32080;SDS011;18593;51.426;7.030;2022-12-18T04:14:40;12.20;;;5.72;;
32080;SDS011;18593;51.426;7.030;2022-12-18T04:17:09;10.98;;;5.53;;
32080;SDS011;18593;51.426;7.030;2022-12-18T04:19:36;9.35;;;5.15;;
32080;SDS011;18593;51.426;7.030;2022-12-18T04:22:03;9.70;;;5.28;;
32080;SDS011;18593;51.426;7.030;2022-12-18T04:24:36;10.18;;;5.15;;
32080;SDS011;18593;51.426;7.030;2022-12-18T04:27:13;11.40;;;5.20;;
32080;SDS011;18593;51.426;7.030;2022-12-18T04:29:45;10.00;;;5.20;;
32080;SDS011;18593;51.426;7.030;2022-12-18T04:32:15;10.20;;;4.97;;
32080;SDS011;18593;51.426;7.030;2022-12-18T04:34:43;9.25;;;5.18;;
32080;SDS011;18593;51.426;7.030;2022-12-18T04:37:10;12.88;;;5.03;;
32080;SDS011;18593;51.426;7.030;2022-12-18T04:39:38;8.98;;;4.30;;
32080;SDS011;18593;51.426;7.030;2022-12-18T04:42:11;11.90;;;4.88;;
32080;SDS011;18593;51.426;7.030;2022-12-18T04:44:38;10.38;;;5.45;;
32080;SDS011;18593;51.426;7.030;2022-12-18T04:47:05;10.77;;;5.25;;
32080;SDS011;18593;51.426;7.030;2022-12-18T04:49:33;9.75;;;5.03;;
32080;SDS011;18593;51.426;7.030;2022-12-18T04:52:00;9.52;;;4.80;;
32080;SDS011;18593;51.426;7.030;2022-12-18T04:54:27;10.10;;;5.05;;
32080;SDS011;18593;51.426;7.030;2022-12-18T04:56:54;11.18;;;5.43;;
32080;SDS011;18593;51.426;7.030;2022-12-18T04:59:21;10.00;;;4.82;;
32080;SDS011;18593;51.426;7.030;2022-12-18T05:01:48;10.02;;;5.25;;
32080;SDS011;18593;51.426;7.030;2022-12-18T05:04:15;10.30;;;4.90;;
32080;SDS011;18593;51.426;7.030;2022-12-18T05:06:43;11.05;;;5.88;;
32080;SDS011;18593;51.426;7.030;2022-12-18T05:09:10;9.55;;;4.85;;
32080;SDS011;18593;51.426;7.030;2022-12-18T05:11:37;12.18;;;4.95;;
32080;SDS011;18593;51.426;7.030;2022-12-18T05:14:04;9.35;;;5.22;;
32080;SDS011;18593;51.426;7.030;2022-12-18T05:16:31;10.63;;;5.50;;
32080;SDS011;18593;51.426;7.030;2022-12-18T05:18:57;9.73;;;4.70;;
32080;SDS011;18593;51.426;7.030;2022-12-18T05:21:24;10.50;;;5.18;;
32080;SDS011;18593;51.426;7.030;2022-12-18T05:23:53;11.52;;;5.43;;
32080;SDS011;18593;51.426;7.030;2022-12-18T05:26:19;10.80;;;4.65;;
32080;SDS011;18593;51.426;7.030;2022-12-18T05:28:46;10.38;;;4.82;;
32080;SDS011;18593;51.426;7.030;2022-12-18T05:31:13;8.70;;;4.65;;
32080;SDS011;18593;51.426;7.030;2022-12-18T05:33:40;9.35;;;4.88;;
32080;SDS011;18593;51.426;7.030;2022-12-18T05:36:08;9.25;;;4.53;;
32080;SDS011;18593;51.426;7.030;2022-12-18T05:38:36;8.98;;;4.55;;
32080;SDS011;18593;51.426;7.030;2022-12-18T05:41:05;10.95;;;4.72;;
32080;SDS011;18593;51.426;7.030;2022-12-18T05:43:33;10.27;;;4.57;;
32080;SDS011;18593;51.426;7.030;2022-12-18T05:46:03;8.48;;;4.20;;
32080;SDS011;18593;51.426;7.030;2022-12-18T05:48:30;9.38;;;4.53;;
32080;SDS011;18593;51.426;7.030;2022-12-18T05:51:02;9.15;;;4.00;;
32080;SDS011;18593;51.426;7.030;2022-12-18T05:53:30;10.55;;;4.75;;
32080;SDS011;18593;51.426;7.030;2022-12-18T05:55:59;9.50;;;3.85;;
32080;SDS011;18593;51.426;7.030;2022-12-18T05:58:28;9.57;;;4.40;;
32080;SDS011;18593;51.426;7.030;2022-12-18T06:00:55;10.63;;;4.40;;
32080;SDS011;18593;51.426;7.030;2022-12-18T06:03:22;7.55;;;3.83;;
32080;SDS011;18593;51.426;7.030;2022-12-18T06:05:49;8.85;;;4.22;;
32080;SDS011;18593;51.426;7.030;2022-12-18T06:08:16;9.55;;;4.60;;
32080;SDS011;18593;51.426;7.030;2022-12-18T06:10:48;8.45;;;4.32;;
32080;SDS011;18593;51.426;7.030;2022-12-18T06:13:17;7.18;;;3.80;;
32080;SDS011;18593;51.426;7.030;2022-12-18T06:15:45;8.65;;;4.40;;
32080;SDS011;18593;51.426;7.030;2022-12-18T06:18:12;8.00;;;4.18;;
32080;SDS011;18593;51.426;7.030;2022-12-18T06:20:39;8.10;;;3.85;;
32080;SDS011;18593;51.426;7.030;2022-12-18T06:23:06;8.43;;;4.25;;
32080;SDS011;18593;51.426;7.030;2022-12-18T06:25:36;9.50;;;4.60;;
32080;SDS011;18593;51.426;7.030;2022-12-18T06:28:04;8.45;;;4.25;;
32080;SDS011;18593;51.426;7.030;2022-12-18T06:30:31;8.05;;;3.80;;
32080;SDS011;18593;51.426;7.030;2022-12-18T06:32:59;9.38;;;4.10;;
32080;SDS011;18593;51.426;7.030;2022-12-18T06:35:26;8.93;;;4.20;;
32080;SDS011;18593;51.426;7.030;2022-12-18T06:37:53;8.75;;;4.20;;
32080;SDS011;18593;51.426;7.030;2022-12-18T06:40:20;7.72;;;3.70;;
32080;SDS011;18593;51.426;7.030;2022-12-18T06:42:47;8.68;;;4.28;;
32080;SDS011;18593;51.426;7.030;2022-12-18T06:45:14;8.32;;;4.43;;
32080;SDS011;18593;51.426;7.030;2022-12-18T06:47:41;8.13;;;4.05;;
32080;SDS011;18593;51.426;7.030;2022-12-18T06:50:09;7.80;;;3.90;;
32080;SDS011;18593;51.426;7.030;2022-12-18T06:52:36;9.02;;;3.72;;
32080;SDS011;18593;51.426;7.030;2022-12-18T06:55:04;9.38;;;4.07;;
32080;SDS011;18593;51.426;7.030;2022-12-18T06:57:34;7.28;;;3.72;;
32080;SDS011;18593;51.426;7.030;2022-12-18T07:00:01;10.05;;;4.22;;
32080;SDS011;18593;51.426;7.030;2022-12-18T07:02:29;7.28;;;3.58;;
32080;SDS011;18593;51.426;7.030;2022-12-18T07:04:56;9.30;;;3.85;;
32080;SDS011;18593;51.426;7.030;2022-12-18T07:07:24;9.10;;;4.07;;
32080;SDS011;18593;51.426;7.030;2022-12-18T07:09:51;9.00;;;3.95;;
32080;SDS011;18593;51.426;7.030;2022-12-18T07:12:18;7.63;;;3.95;;
32080;SDS011;18593;51.426;7.030;2022-12-18T07:14:45;9.10;;;4.20;;
32080;SDS011;18593;51.426;7.030;2022-12-18T07:17:12;10.65;;;3.70;;
32080;SDS011;18593;51.426;7.030;2022-12-18T07:19:39;8.32;;;3.97;;
32080;SDS011;18593;51.426;7.030;2022-12-18T07:22:05;7.40;;;3.67;;
32080;SDS011;18593;51.426;7.030;2022-12-18T07:24:34;9.48;;;4.20;;
32080;SDS011;18593;51.426;7.030;2022-12-18T07:27:01;7.95;;;3.75;;
32080;SDS011;18593;51.426;7.030;2022-12-18T07:29:28;9.60;;;4.20;;
32080;SDS011;18593;51.426;7.030;2022-12-18T07:31:54;10.00;;;4.72;;
32080;SDS011;18593;51.426;7.030;2022-12-18T07:34:21;8.70;;;4.40;;
32080;SDS011;18593;51.426;7.030;2022-12-18T07:36:48;8.15;;;4.20;;
32080;SDS011;18593;51.426;7.030;2022-12-18T07:39:15;7.45;;;3.75;;
32080;SDS011;18593;51.426;7.030;2022-12-18T07:41:43;10.13;;;4.20;;
32080;SDS011;18593;51.426;7.030;2022-12-18T07:44:33;9.30;;;3.90;;
32080;SDS011;18593;51.426;7.030;2022-12-18T07:47:00;9.27;;;4.13;;
32080;SDS011;18593;51.426;7.030;2022-12-18T07:49:27;9.82;;;4.43;;
32080;SDS011;18593;51.426;7.030;2022-12-18T07:51:54;10.77;;;5.05;;
32080;SDS011;18593;51.426;7.030;2022-12-18T07:54:21;10.95;;;4.72;;
32080;SDS011;18593;51.426;7.030;2022-12-18T07:56:50;9.27;;;4.63;;
32080;SDS011;18593;51.426;7.030;2022-12-18T07:59:17;9.43;;;4.72;;
32080;SDS011;18593;51.426;7.030;2022-12-18T08:01:49;10.30;;;4.43;;
32080;SDS011;18593;51.426;7.030;2022-12-18T08:04:17;9.95;;;5.00;;
32080;SDS011;18593;51.426;7.030;2022-12-18T08:06:44;11.88;;;5.70;;
32080;SDS011;18593;51.426;7.030;2022-12-18T08:09:11;11.07;;;5.35;;
32080;SDS011;18593;51.426;7.030;2022-12-18T08:11:38;10.90;;;5.30;;
32080;SDS011;18593;51.426;7.030;2022-12-18T08:14:06;13.13;;;5.05;;
32080;SDS011;18593;51.426;7.030;2022-12-18T08:16:33;10.93;;;5.05;;
32080;SDS011;18593;51.426;7.030;2022-12-18T08:19:00;13.18;;;6.35;;
32080;SDS011;18593;51.426;7.030;2022-12-18T08:21:28;12.05;;;6.05;;
32080;SDS011;18593;51.426;7.030;2022-12-18T08:23:56;9.82;;;5.25;;
32080;SDS011;18593;51.426;7.030;2022-12-18T08:26:24;12.77;;;5.90;;
32080;SDS011;18593;51.426;7.030;2022-12-18T08:28:53;10.63;;;5.15;;
32080;SDS011;18593;51.426;7.030;2022-12-18T08:31:22;10.25;;;4.82;;
32080;SDS011;18593;51.426;7.030;2022-12-18T08:33:49;10.27;;;5.75;;
32080;SDS011;18593;51.426;7.030;2022-12-18T08:36:16;12.57;;;5.72;;
32080;SDS011;18593;51.426;7.030;2022-12-18T08:38:44;13.20;;;6.53;;
32080;SDS011;18593;51.426;7.030;2022-12-18T08:41:11;11.23;;;5.07;;
32080;SDS011;18593;51.426;7.030;2022-12-18T08:43:39;9.65;;;4.60;;
32080;SDS011;18593;51.426;7.030;2022-12-18T08:46:26;11.63;;;4.55;;
32080;SDS011;18593;51.426;7.030;2022-12-18T08:48:54;9.23;;;4.55;;
32080;SDS011;18593;51.426;7.030;2022-12-18T08:51:21;10.07;;;4.53;;
32080;SDS011;18593;51.426;7.030;2022-12-18T08:53:48;10.00;;;4.13;;
32080;SDS011;18593;51.426;7.030;2022-12-18T08:56:15;8.52;;;4.15;;
32080;SDS011;18593;51.426;7.030;2022-12-18T08:58:42;9.35;;;4.28;;
32080;SDS011;18593;51.426;7.030;2022-12-18T09:01:10;9.70;;;4.60;;
32080;SDS011;18593;51.426;7.030;2022-12-18T09:03:39;8.05;;;4.00;;
32080;SDS011;18593;51.426;7.030;2022-12-18T09:06:07;8.82;;;4.32;;
32080;SDS011;18593;51.426;7.030;2022-12-18T09:08:34;8.25;;;3.80;;
32080;SDS011;18593;51.426;7.030;2022-12-18T09:11:01;8.75;;;4.07;;
32080;SDS011;18593;51.426;7.030;2022-12-18T09:13:28;10.20;;;3.85;;
32080;SDS011;18593;51.426;7.030;2022-12-18T09:15:55;7.82;;;3.95;;
32080;SDS011;18593;51.426;7.030;2022-12-18T09:18:23;8.50;;;3.90;;
32080;SDS011;18593;51.426;7.030;2022-12-18T09:20:51;9.00;;;3.97;;
32080;SDS011;18593;51.426;7.030;2022-12-18T09:23:18;8.88;;;3.80;;
32080;SDS011;18593;51.426;7.030;2022-12-18T09:25:46;7.22;;;3.70;;
32080;SDS011;18593;51.426;7.030;2022-12-18T09:28:17;8.55;;;3.60;;
32080;SDS011;18593;51.426;7.030;2022-12-18T09:33:11;8.10;;;3.70;;
32080;SDS011;18593;51.426;7.030;2022-12-18T09:35:39;7.75;;;3.78;;
32080;SDS011;18593;51.426;7.030;2022-12-18T09:38:08;8.23;;;4.00;;
32080;SDS011;18593;51.426;7.030;2022-12-18T09:40:40;9.55;;;4.13;;
32080;SDS011;18593;51.426;7.030;2022-12-18T09:43:09;9.93;;;4.18;;
32080;SDS011;18593;51.426;7.030;2022-12-18T09:45:40;8.52;;;3.85;;
32080;SDS011;18593;51.426;7.030;2022-12-18T09:48:10;7.67;;;3.60;;
32080;SDS011;18593;51.426;7.030;2022-12-18T09:50:42;6.85;;;3.33;;
32080;SDS011;18593;51.426;7.030;2022-12-18T09:53:13;8.15;;;3.70;;
32080;SDS011;18593;51.426;7.030;2022-12-18T09:55:45;8.95;;;3.60;;
32080;SDS011;18593;51.426;7.030;2022-12-18T09:58:15;7.60;;;3.45;;
32080;SDS011;18593;51.426;7.030;2022-12-18T10:00:45;7.68;;;3.72;;
32080;SDS011;18593;51.426;7.030;2022-12-18T10:03:13;7.72;;;3.50;;
32080;SDS011;18593;51.426;7.030;2022-12-18T10:05:43;8.48;;;3.67;;
32080;SDS011;18593;51.426;7.030;2022-12-18T10:08:18;8.07;;;3.88;;
32080;SDS011;18593;51.426;7.030;2022-12-18T10:10:51;8.70;;;3.65;;
32080;SDS011;18593;51.426;7.030;2022-12-18T10:13:21;7.25;;;3.78;;
32080;SDS011;18593;51.426;7.030;2022-12-18T10:16:03;7.30;;;3.65;;
32080;SDS011;18593;51.426;7.030;2022-12-18T10:18:39;8.73;;;3.67;;
32080;SDS011;18593;51.426;7.030;2022-12-18T10:21:29;9.63;;;3.90;;
32080;SDS011;18593;51.426;7.030;2022-12-18T10:24:03;9.43;;;4.30;;
32080;SDS011;18593;51.426;7.030;2022-12-18T10:26:41;7.60;;;3.67;;
32080;SDS011;18593;51.426;7.030;2022-12-18T10:29:09;7.95;;;4.18;;
32080;SDS011;18593;51.426;7.030;2022-12-18T10:31:38;8.73;;;4.10;;
32080;SDS011;18593;51.426;7.030;2022-12-18T10:34:08;7.70;;;4.20;;
32080;SDS011;18593;51.426;7.030;2022-12-18T10:36:35;8.73;;;4.20;;
32080;SDS011;18593;51.426;7.030;2022-12-18T10:39:19;9.45;;;4.00;;
32080;SDS011;18593;51.426;7.030;2022-12-18T10:41:50;8.05;;;4.07;;
32080;SDS011;18593;51.426;7.030;2022-12-18T10:44:18;7.60;;;4.43;;
32080;SDS011;18593;51.426;7.030;2022-12-18T10:46:46;8.90;;;4.43;;
32080;SDS011;18593;51.426;7.030;2022-12-18T10:49:19;9.25;;;4.43;;
32080;SDS011;18593;51.426;7.030;2022-12-18T10:51:48;9.15;;;4.60;;
32080;SDS011;18593;51.426;7.030;2022-12-18T10:54:17;9.15;;;4.65;;
32080;SDS011;18593;51.426;7.030;2022-12-18T10:56:46;9.77;;;4.68;;
32080;SDS011;18593;51.426;7.030;2022-12-18T10:59:14;8.73;;;4.55;;
32080;SDS011;18593;51.426;7.030;2022-12-18T11:01:47;9.93;;;4.85;;
32080;SDS011;18593;51.426;7.030;2022-12-18T11:04:17;10.77;;;4.53;;
32080;SDS011;18593;51.426;7.030;2022-12-18T11:06:55;9.90;;;4.57;;
32080;SDS011;18593;51.426;7.030;2022-12-18T11:09:25;8.13;;;4.35;;
32080;SDS011;18593;51.426;7.030;2022-12-18T11:11:53;9.25;;;4.75;;
32080;SDS011;18593;51.426;7.030;2022-12-18T11:14:22;11.07;;;4.95;;
32080;SDS011;18593;51.426;7.030;2022-12-18T11:16:50;11.57;;;4.90;;
32080;SDS011;18593;51.426;7.030;2022-12-18T11:19:23;10.27;;;4.82;;
32080;SDS011;18593;51.426;7.030;2022-12-18T11:21:54;9.70;;;5.00;;
32080;SDS011;18593;51.426;7.030;2022-12-18T11:24:25;10.45;;;5.45;;
32080;SDS011;18593;51.426;7.030;2022-12-18T11:26:55;11.15;;;5.25;;
32080;SDS011;18593;51.426;7.030;2022-12-18T11:29:23;12.30;;;6.18;;
32080;SDS011;18593;51.426;7.030;2022-12-18T11:34:29;10.98;;;5.57;;
32080;SDS011;18593;51.426;7.030;2022-12-18T11:36:57;10.63;;;5.43;;
32080;SDS011;18593;51.426;7.030;2022-12-18T11:39:34;12.13;;;5.50;;
32080;SDS011;18593;51.426;7.030;2022-12-18T11:42:04;10.63;;;5.47;;
32080;SDS011;18593;51.426;7.030;2022-12-18T11:44:38;10.18;;;5.13;;
32080;SDS011;18593;51.426;7.030;2022-12-18T11:47:14;10.73;;;5.43;;
32080;SDS011;18593;51.426;7.030;2022-12-18T11:49:45;11.18;;;5.50;;
32080;SDS011;18593;51.426;7.030;2022-12-18T11:52:15;12.88;;;5.47;;
32080;SDS011;18593;51.426;7.030;2022-12-18T11:54:50;8.60;;;4.53;;
32080;SDS011;18593;51.426;7.030;2022-12-18T11:57:19;9.13;;;4.60;;
32080;SDS011;18593;51.426;7.030;2022-12-18T11:59:53;12.40;;;5.10;;
32080;SDS011;18593;51.426;7.030;2022-12-18T12:02:28;8.98;;;4.60;;
32080;SDS011;18593;51.426;7.030;2022-12-18T12:05:05;9.13;;;4.38;;
32080;SDS011;18593;51.426;7.030;2022-12-18T12:07:53;11.95;;;5.13;;
32080;SDS011;18593;51.426;7.030;2022-12-18T12:10:28;9.63;;;4.55;;
32080;SDS011;18593;51.426;7.030;2022-12-18T12:13:09;9.18;;;4.38;;
32080;SDS011;18593;51.426;7.030;2022-12-18T12:15:53;9.02;;;4.20;;
32080;SDS011;18593;51.426;7.030;2022-12-18T12:18:28;10.63;;;4.60;;
32080;SDS011;18593;51.426;7.030;2022-12-18T12:21:02;9.48;;;4.40;;
32080;SDS011;18593;51.426;7.030;2022-12-18T12:23:34;9.75;;;4.10;;
32080;SDS011;18593;51.426;7.030;2022-12-18T12:26:08;10.07;;;3.92;;
32080;SDS011;18593;51.426;7.030;2022-12-18T12:31:33;9.53;;;4.40;;
32080;SDS011;18593;51.426;7.030;2022-12-18T12:34:09;9.88;;;4.95;;
32080;SDS011;18593;51.426;7.030;2022-12-18T12:36:46;9.50;;;4.60;;
32080;SDS011;18593;51.426;7.030;2022-12-18T12:39:21;9.55;;;4.78;;
32080;SDS011;18593;51.426;7.030;2022-12-18T12:41:53;9.88;;;5.15;;
32080;SDS011;18593;51.426;7.030;2022-12-18T12:44:39;10.05;;;4.70;;
32080;SDS011;18593;51.426;7.030;2022-12-18T12:47:10;10.48;;;5.22;;
32080;SDS011;18593;51.426;7.030;2022-12-18T12:49:40;9.30;;;4.70;;
32080;SDS011;18593;51.426;7.030;2022-12-18T12:52:14;8.90;;;4.70;;
32080;SDS011;18593;51.426;7.030;2022-12-18T12:54:42;11.70;;;5.38;;
32080;SDS011;18593;51.426;7.030;2022-12-18T12:57:12;12.25;;;5.93;;
32080;SDS011;18593;51.426;7.030;2022-12-18T12:59:45;11.05;;;6.00;;
32080;SDS011;18593;51.426;7.030;2022-12-18T13:02:18;12.77;;;5.82;;
32080;SDS011;18593;51.426;7.030;2022-12-18T13:04:49;10.63;;;5.68;;
32080;SDS011;18593;51.426;7.030;2022-12-18T13:07:20;10.60;;;5.47;;
32080;SDS011;18593;51.426;7.030;2022-12-18T13:10:11;15.07;;;6.10;;
32080;SDS011;18593;51.426;7.030;2022-12-18T13:12:52;14.15;;;6.32;;
32080;SDS011;18593;51.426;7.030;2022-12-18T13:15:21;11.95;;;6.18;;
32080;SDS011;18593;51.426;7.030;2022-12-18T13:18:01;11.40;;;5.68;;
32080;SDS011;18593;51.426;7.030;2022-12-18T13:20:40;10.57;;;5.70;;
32080;SDS011;18593;51.426;7.030;2022-12-18T13:23:26;11.90;;;6.20;;
32080;SDS011;18593;51.426;7.030;2022-12-18T13:25:55;12.77;;;7.03;;
32080;SDS011;18593;51.426;7.030;2022-12-18T13:28:50;14.18;;;7.30;;
32080;SDS011;18593;51.426;7.030;2022-12-18T13:34:35;13.52;;;6.93;;
32080;SDS011;18593;51.426;7.030;2022-12-18T13:43:15;13.80;;;7.38;;
32080;SDS011;18593;51.426;7.030;2022-12-18T13:45:58;16.73;;;7.68;;
32080;SDS011;18593;51.426;7.030;2022-12-18T13:48:27;13.45;;;6.97;;
32080;SDS011;18593;51.426;7.030;2022-12-18T13:50:58;16.92;;;8.18;;
32080;SDS011;18593;51.426;7.030;2022-12-18T13:53:28;18.98;;;7.85;;
32080;SDS011;18593;51.426;7.030;2022-12-18T13:55:59;15.13;;;7.45;;
32080;SDS011;18593;51.426;7.030;2022-12-18T13:58:26;18.42;;;8.43;;
32080;SDS011;18593;51.426;7.030;2022-12-18T14:00:55;16.40;;;8.70;;
32080;SDS011;18593;51.426;7.030;2022-12-18T14:03:25;17.65;;;8.95;;
32080;SDS011;18593;51.426;7.030;2022-12-18T14:05:54;14.68;;;8.38;;
32080;SDS011;18593;51.426;7.030;2022-12-18T14:08:27;16.23;;;8.63;;
32080;SDS011;18593;51.426;7.030;2022-12-18T14:10:58;14.98;;;8.18;;
32080;SDS011;18593;51.426;7.030;2022-12-18T14:13:27;15.95;;;8.35;;
32080;SDS011;18593;51.426;7.030;2022-12-18T14:15:57;15.32;;;8.02;;
32080;SDS011;18593;51.426;7.030;2022-12-18T14:18:25;18.42;;;8.35;;
32080;SDS011;18593;51.426;7.030;2022-12-18T14:20:54;15.90;;;9.23;;
32080;SDS011;18593;51.426;7.030;2022-12-18T14:23:26;18.02;;;8.95;;
32080;SDS011;18593;51.426;7.030;2022-12-18T14:25:58;18.92;;;9.38;;
32080;SDS011;18593;51.426;7.030;2022-12-18T14:28:26;20.42;;;8.98;;
32080;SDS011;18593;51.426;7.030;2022-12-18T14:30:53;16.35;;;8.85;;
32080;SDS011;18593;51.426;7.030;2022-12-18T14:33:22;18.25;;;9.13;;
32080;SDS011;18593;51.426;7.030;2022-12-18T14:35:55;20.40;;;9.10;;
32080;SDS011;18593;51.426;7.030;2022-12-18T14:38:25;16.98;;;8.98;;
32080;SDS011;18593;51.426;7.030;2022-12-18T14:40:59;18.80;;;9.63;;
32080;SDS011;18593;51.426;7.030;2022-12-18T14:43:28;18.55;;;9.57;;
32080;SDS011;18593;51.426;7.030;2022-12-18T14:45:56;18.63;;;9.02;;
32080;SDS011;18593;51.426;7.030;2022-12-18T14:48:32;21.15;;;8.95;;
32080;SDS011;18593;51.426;7.030;2022-12-18T14:51:02;18.58;;;9.25;;
32080;SDS011;18593;51.426;7.030;2022-12-18T14:53:34;20.10;;;10.40;;
32080;SDS011;18593;51.426;7.030;2022-12-18T14:56:03;20.15;;;9.68;;
32080;SDS011;18593;51.426;7.030;2022-12-18T14:58:30;21.55;;;10.60;;
32080;SDS011;18593;51.426;7.030;2022-12-18T15:00:57;19.70;;;9.88;;
32080;SDS011;18593;51.426;7.030;2022-12-18T15:03:24;19.55;;;9.70;;
32080;SDS011;18593;51.426;7.030;2022-12-18T15:05:52;19.92;;;9.82;;
32080;SDS011;18593;51.426;7.030;2022-12-18T15:08:30;20.00;;;10.20;;
32080;SDS011;18593;51.426;7.030;2022-12-18T15:11:00;20.60;;;10.07;;
32080;SDS011;18593;51.426;7.030;2022-12-18T15:13:27;20.95;;;10.65;;
32080;SDS011;18593;51.426;7.030;2022-12-18T15:15:54;19.60;;;10.27;;
32080;SDS011;18593;51.426;7.030;2022-12-18T15:18:23;19.60;;;10.02;;